Westel, Tennessee
Current Conditions -  °F | °C
As of 12:53 AM on Friday 28 Nov 2014 (Local Time) from KCSV Reporting Station
Overcast Overcast  
Wind Chill: 18°   Ceiling: 2000
Heat Index: 26°   Visibility: 10mi
Dew Point: 16°   Wind: 8mph
Humidity: 66%   Direction: 340°NNW
Pressure: 30.36"   Gusts: NA
Location:  35.8538°N, 84.6987°W
Report Text: KCSV 280553Z AUTO 34007KT 10SM BKN020 OVC024 M03/M09 A3036 RMK AO2 SLP296 T10331089 11011 21033 400331033 58006
Loading
Personal Weather Stations






























Interactive Weather Map New forecast layout! Learn more

10-Day Weather Forecast

Advertisements
Track Severe Weather on mobile